Vandervoort, Arkansas
Current Conditions -  °F | °C
As of 9:15 PM on Thursday 18 Dec 2014 (Local Time) from KMEZ Reporting Station
Overcast Overcast  
Wind Chill: 41°   Ceiling: 400
Heat Index: 45°   Visibility: 5mi
Dew Point: 43°   Wind: 6mph
Humidity: 93%   Direction: 80°E
Pressure: 30.19"   Gusts: NA
Location:  34.38°N, 94.37°W
Report Text: KMEZ 190315Z AUTO 08005KT 5SM OVC004 07/06 A3019 RMK AO2
Loading
Personal Weather Stations






























Interactive Weather Map New forecast layout! Learn more

10-Day Weather Forecast

Advertisements
Track Severe Weather on mobile